sensor_id;sensor_type;location;lat;lon;timestamp;P1;durP1;ratioP1;P2;durP2;ratioP2
9346;SDS011;4712;50.698;7.164;2022-08-19T00:01:02;6.55;;;5.85;;
9346;SDS011;4712;50.698;7.164;2022-08-19T00:03:28;6.87;;;5.90;;
9346;SDS011;4712;50.698;7.164;2022-08-19T00:05:53;8.77;;;5.53;;
9346;SDS011;4712;50.698;7.164;2022-08-19T00:08:18;6.47;;;5.32;;
9346;SDS011;4712;50.698;7.164;2022-08-19T00:10:43;6.47;;;5.70;;
9346;SDS011;4712;50.698;7.164;2022-08-19T00:13:10;6.85;;;5.57;;
9346;SDS011;4712;50.698;7.164;2022-08-19T00:15:35;7.07;;;5.67;;
9346;SDS011;4712;50.698;7.164;2022-08-19T00:18:01;5.82;;;5.30;;
9346;SDS011;4712;50.698;7.164;2022-08-19T00:20:27;6.20;;;5.43;;
9346;SDS011;4712;50.698;7.164;2022-08-19T00:22:52;6.27;;;5.53;;
9346;SDS011;4712;50.698;7.164;2022-08-19T00:25:17;6.50;;;5.60;;
9346;SDS011;4712;50.698;7.164;2022-08-19T00:27:43;9.38;;;5.85;;
9346;SDS011;4712;50.698;7.164;2022-08-19T00:30:08;7.00;;;5.10;;
9346;SDS011;4712;50.698;7.164;2022-08-19T00:32:35;13.75;;;6.07;;
9346;SDS011;4712;50.698;7.164;2022-08-19T00:35:01;7.03;;;4.90;;
9346;SDS011;4712;50.698;7.164;2022-08-19T00:37:26;7.47;;;5.47;;
9346;SDS011;4712;50.698;7.164;2022-08-19T00:39:52;6.72;;;5.68;;
9346;SDS011;4712;50.698;7.164;2022-08-19T00:42:18;6.97;;;4.80;;
9346;SDS011;4712;50.698;7.164;2022-08-19T00:44:43;7.78;;;5.45;;
9346;SDS011;4712;50.698;7.164;2022-08-19T00:47:08;7.05;;;4.93;;
9346;SDS011;4712;50.698;7.164;2022-08-19T00:49:35;7.83;;;5.53;;
9346;SDS011;4712;50.698;7.164;2022-08-19T00:52:05;7.18;;;4.90;;
9346;SDS011;4712;50.698;7.164;2022-08-19T00:54:31;5.30;;;4.78;;
9346;SDS011;4712;50.698;7.164;2022-08-19T00:56:58;7.55;;;5.10;;
9346;SDS011;4712;50.698;7.164;2022-08-19T00:59:24;6.57;;;4.97;;
9346;SDS011;4712;50.698;7.164;2022-08-19T01:01:50;6.15;;;5.15;;
9346;SDS011;4712;50.698;7.164;2022-08-19T01:04:15;6.93;;;5.20;;
9346;SDS011;4712;50.698;7.164;2022-08-19T01:06:41;6.90;;;5.45;;
9346;SDS011;4712;50.698;7.164;2022-08-19T01:09:06;6.22;;;4.70;;
9346;SDS011;4712;50.698;7.164;2022-08-19T01:11:33;6.25;;;5.30;;
9346;SDS011;4712;50.698;7.164;2022-08-19T01:13:59;6.38;;;5.72;;
9346;SDS011;4712;50.698;7.164;2022-08-19T01:16:25;6.88;;;5.50;;
9346;SDS011;4712;50.698;7.164;2022-08-19T01:18:51;8.18;;;5.40;;
9346;SDS011;4712;50.698;7.164;2022-08-19T01:21:22;6.63;;;5.20;;
9346;SDS011;4712;50.698;7.164;2022-08-19T01:23:49;6.35;;;5.72;;
9346;SDS011;4712;50.698;7.164;2022-08-19T01:26:16;6.65;;;5.40;;
9346;SDS011;4712;50.698;7.164;2022-08-19T01:28:41;6.65;;;5.93;;
9346;SDS011;4712;50.698;7.164;2022-08-19T01:31:07;5.43;;;4.93;;
9346;SDS011;4712;50.698;7.164;2022-08-19T01:33:34;7.82;;;5.90;;
9346;SDS011;4712;50.698;7.164;2022-08-19T01:36:03;6.85;;;6.03;;
9346;SDS011;4712;50.698;7.164;2022-08-19T01:38:29;7.47;;;5.60;;
9346;SDS011;4712;50.698;7.164;2022-08-19T01:40:56;6.15;;;5.55;;
9346;SDS011;4712;50.698;7.164;2022-08-19T01:43:22;7.65;;;5.70;;
9346;SDS011;4712;50.698;7.164;2022-08-19T01:45:47;8.77;;;5.83;;
9346;SDS011;4712;50.698;7.164;2022-08-19T01:48:12;7.10;;;5.77;;
9346;SDS011;4712;50.698;7.164;2022-08-19T01:50:38;7.38;;;5.10;;
9346;SDS011;4712;50.698;7.164;2022-08-19T01:53:05;6.00;;;5.43;;
9346;SDS011;4712;50.698;7.164;2022-08-19T01:55:30;6.88;;;5.80;;
9346;SDS011;4712;50.698;7.164;2022-08-19T01:57:57;8.75;;;5.45;;
9346;SDS011;4712;50.698;7.164;2022-08-19T02:00:23;7.80;;;5.53;;
9346;SDS011;4712;50.698;7.164;2022-08-19T02:02:49;6.68;;;5.85;;
9346;SDS011;4712;50.698;7.164;2022-08-19T02:05:14;8.70;;;5.57;;
9346;SDS011;4712;50.698;7.164;2022-08-19T02:07:41;6.50;;;5.78;;
9346;SDS011;4712;50.698;7.164;2022-08-19T02:10:08;9.00;;;6.10;;
9346;SDS011;4712;50.698;7.164;2022-08-19T02:12:33;9.73;;;5.78;;
9346;SDS011;4712;50.698;7.164;2022-08-19T02:14:59;10.98;;;5.85;;
9346;SDS011;4712;50.698;7.164;2022-08-19T02:17:25;9.23;;;5.68;;
9346;SDS011;4712;50.698;7.164;2022-08-19T02:19:51;8.60;;;5.60;;
9346;SDS011;4712;50.698;7.164;2022-08-19T02:22:16;5.30;;;4.80;;
9346;SDS011;4712;50.698;7.164;2022-08-19T02:24:41;6.87;;;6.20;;
9346;SDS011;4712;50.698;7.164;2022-08-19T02:27:07;7.38;;;5.72;;
9346;SDS011;4712;50.698;7.164;2022-08-19T02:29:32;6.33;;;5.70;;
9346;SDS011;4712;50.698;7.164;2022-08-19T02:31:57;7.10;;;5.97;;
9346;SDS011;4712;50.698;7.164;2022-08-19T02:34:23;6.47;;;5.72;;
9346;SDS011;4712;50.698;7.164;2022-08-19T02:36:49;6.88;;;5.07;;
9346;SDS011;4712;50.698;7.164;2022-08-19T02:39:15;7.00;;;6.15;;
9346;SDS011;4712;50.698;7.164;2022-08-19T02:41:40;7.05;;;6.00;;
9346;SDS011;4712;50.698;7.164;2022-08-19T02:44:06;6.18;;;5.57;;
9346;SDS011;4712;50.698;7.164;2022-08-19T02:46:31;6.75;;;6.15;;
9346;SDS011;4712;50.698;7.164;2022-08-19T02:48:58;6.63;;;5.93;;
9346;SDS011;4712;50.698;7.164;2022-08-19T02:51:25;8.18;;;5.95;;
9346;SDS011;4712;50.698;7.164;2022-08-19T02:53:51;8.25;;;6.05;;
9346;SDS011;4712;50.698;7.164;2022-08-19T02:56:16;8.25;;;6.10;;
9346;SDS011;4712;50.698;7.164;2022-08-19T02:58:42;7.60;;;5.97;;
9346;SDS011;4712;50.698;7.164;2022-08-19T03:01:08;7.57;;;5.60;;
9346;SDS011;4712;50.698;7.164;2022-08-19T03:03:33;9.90;;;6.75;;
9346;SDS011;4712;50.698;7.164;2022-08-19T03:08:29;6.65;;;5.57;;
9346;SDS011;4712;50.698;7.164;2022-08-19T03:10:55;8.00;;;5.60;;
9346;SDS011;4712;50.698;7.164;2022-08-19T03:13:20;8.77;;;6.27;;
9346;SDS011;4712;50.698;7.164;2022-08-19T03:15:46;7.60;;;6.65;;
9346;SDS011;4712;50.698;7.164;2022-08-19T03:18:12;9.38;;;6.55;;
9346;SDS011;4712;50.698;7.164;2022-08-19T03:20:44;7.10;;;6.28;;
9346;SDS011;4712;50.698;7.164;2022-08-19T03:23:10;9.73;;;6.10;;
9346;SDS011;4712;50.698;7.164;2022-08-19T03:25:38;7.45;;;6.38;;
9346;SDS011;4712;50.698;7.164;2022-08-19T03:28:05;8.23;;;6.07;;
9346;SDS011;4712;50.698;7.164;2022-08-19T03:30:31;11.68;;;5.88;;
9346;SDS011;4712;50.698;7.164;2022-08-19T03:32:57;12.32;;;6.22;;
9346;SDS011;4712;50.698;7.164;2022-08-19T03:35:22;6.63;;;6.00;;
9346;SDS011;4712;50.698;7.164;2022-08-19T03:37:47;8.85;;;6.57;;
9346;SDS011;4712;50.698;7.164;2022-08-19T03:40:12;6.18;;;5.55;;
9346;SDS011;4712;50.698;7.164;2022-08-19T03:42:37;7.73;;;6.10;;
9346;SDS011;4712;50.698;7.164;2022-08-19T03:45:03;7.97;;;6.63;;
9346;SDS011;4712;50.698;7.164;2022-08-19T03:47:28;8.25;;;6.25;;
9346;SDS011;4712;50.698;7.164;2022-08-19T03:49:55;6.90;;;6.20;;
9346;SDS011;4712;50.698;7.164;2022-08-19T03:52:20;10.48;;;6.90;;
9346;SDS011;4712;50.698;7.164;2022-08-19T03:54:45;7.80;;;6.55;;
9346;SDS011;4712;50.698;7.164;2022-08-19T03:57:10;7.05;;;6.35;;
9346;SDS011;4712;50.698;7.164;2022-08-19T03:59:36;7.32;;;6.60;;
9346;SDS011;4712;50.698;7.164;2022-08-19T04:02:05;7.28;;;6.28;;
9346;SDS011;4712;50.698;7.164;2022-08-19T04:04:33;8.27;;;6.43;;
9346;SDS011;4712;50.698;7.164;2022-08-19T04:06:59;7.95;;;6.40;;
9346;SDS011;4712;50.698;7.164;2022-08-19T04:09:24;9.05;;;6.53;;
9346;SDS011;4712;50.698;7.164;2022-08-19T04:11:50;10.43;;;7.05;;
9346;SDS011;4712;50.698;7.164;2022-08-19T04:14:19;8.23;;;6.57;;
9346;SDS011;4712;50.698;7.164;2022-08-19T04:16:45;9.77;;;7.05;;
9346;SDS011;4712;50.698;7.164;2022-08-19T04:19:12;8.00;;;6.97;;
9346;SDS011;4712;50.698;7.164;2022-08-19T04:21:37;8.90;;;6.43;;
9346;SDS011;4712;50.698;7.164;2022-08-19T04:24:02;8.60;;;6.67;;
9346;SDS011;4712;50.698;7.164;2022-08-19T04:26:29;7.20;;;6.50;;
9346;SDS011;4712;50.698;7.164;2022-08-19T04:28:57;8.48;;;6.20;;
9346;SDS011;4712;50.698;7.164;2022-08-19T04:31:23;8.50;;;6.80;;
9346;SDS011;4712;50.698;7.164;2022-08-19T04:33:59;7.70;;;6.90;;
9346;SDS011;4712;50.698;7.164;2022-08-19T04:36:26;7.60;;;6.80;;
9346;SDS011;4712;50.698;7.164;2022-08-19T04:38:55;9.40;;;6.68;;
9346;SDS011;4712;50.698;7.164;2022-08-19T04:41:21;7.40;;;6.43;;
9346;SDS011;4712;50.698;7.164;2022-08-19T04:44:05;9.55;;;6.60;;
9346;SDS011;4712;50.698;7.164;2022-08-19T04:46:30;8.35;;;6.43;;
9346;SDS011;4712;50.698;7.164;2022-08-19T04:48:57;8.02;;;7.22;;
9346;SDS011;4712;50.698;7.164;2022-08-19T04:51:22;7.32;;;6.63;;
9346;SDS011;4712;50.698;7.164;2022-08-19T04:53:48;9.48;;;6.47;;
9346;SDS011;4712;50.698;7.164;2022-08-19T04:56:13;7.27;;;6.57;;
9346;SDS011;4712;50.698;7.164;2022-08-19T04:58:40;8.85;;;7.03;;
9346;SDS011;4712;50.698;7.164;2022-08-19T05:01:07;13.40;;;8.27;;
9346;SDS011;4712;50.698;7.164;2022-08-19T05:03:33;9.88;;;7.57;;
9346;SDS011;4712;50.698;7.164;2022-08-19T05:06:05;8.88;;;6.95;;
9346;SDS011;4712;50.698;7.164;2022-08-19T05:08:32;8.83;;;7.13;;
9346;SDS011;4712;50.698;7.164;2022-08-19T05:10:58;7.45;;;6.68;;
9346;SDS011;4712;50.698;7.164;2022-08-19T05:13:24;14.65;;;7.28;;
9346;SDS011;4712;50.698;7.164;2022-08-19T05:15:54;8.82;;;7.45;;
9346;SDS011;4712;50.698;7.164;2022-08-19T05:18:19;14.02;;;7.20;;
9346;SDS011;4712;50.698;7.164;2022-08-19T05:21:09;8.35;;;7.53;;
9346;SDS011;4712;50.698;7.164;2022-08-19T05:23:53;10.52;;;7.00;;
9346;SDS011;4712;50.698;7.164;2022-08-19T05:26:18;7.82;;;6.88;;
9346;SDS011;4712;50.698;7.164;2022-08-19T05:28:44;8.70;;;7.43;;
9346;SDS011;4712;50.698;7.164;2022-08-19T05:31:09;10.43;;;7.17;;
9346;SDS011;4712;50.698;7.164;2022-08-19T05:33:34;11.63;;;7.47;;
9346;SDS011;4712;50.698;7.164;2022-08-19T05:36:00;13.65;;;8.48;;
9346;SDS011;4712;50.698;7.164;2022-08-19T05:38:25;9.27;;;6.97;;
9346;SDS011;4712;50.698;7.164;2022-08-19T05:40:52;10.13;;;7.55;;
9346;SDS011;4712;50.698;7.164;2022-08-19T05:43:17;10.73;;;8.47;;
9346;SDS011;4712;50.698;7.164;2022-08-19T05:45:42;12.70;;;8.17;;
9346;SDS011;4712;50.698;7.164;2022-08-19T05:48:09;11.05;;;8.32;;
9346;SDS011;4712;50.698;7.164;2022-08-19T05:50:36;8.07;;;7.28;;
9346;SDS011;4712;50.698;7.164;2022-08-19T05:53:01;11.90;;;8.85;;
9346;SDS011;4712;50.698;7.164;2022-08-19T05:55:26;10.80;;;8.02;;
9346;SDS011;4712;50.698;7.164;2022-08-19T05:57:52;10.77;;;8.23;;
9346;SDS011;4712;50.698;7.164;2022-08-19T06:00:17;9.30;;;8.40;;
9346;SDS011;4712;50.698;7.164;2022-08-19T06:02:42;10.98;;;8.52;;
9346;SDS011;4712;50.698;7.164;2022-08-19T06:05:07;10.40;;;7.93;;
9346;SDS011;4712;50.698;7.164;2022-08-19T06:07:37;11.45;;;8.80;;
9346;SDS011;4712;50.698;7.164;2022-08-19T06:10:04;9.45;;;7.57;;
9346;SDS011;4712;50.698;7.164;2022-08-19T06:12:30;10.23;;;7.88;;
9346;SDS011;4712;50.698;7.164;2022-08-19T06:14:58;13.35;;;10.65;;
9346;SDS011;4712;50.698;7.164;2022-08-19T06:17:23;12.32;;;10.88;;
9346;SDS011;4712;50.698;7.164;2022-08-19T06:19:50;16.58;;;11.73;;
9346;SDS011;4712;50.698;7.164;2022-08-19T06:22:15;14.50;;;12.83;;
9346;SDS011;4712;50.698;7.164;2022-08-19T06:24:41;20.10;;;18.00;;
9346;SDS011;4712;50.698;7.164;2022-08-19T06:27:06;22.70;;;19.60;;
9346;SDS011;4712;50.698;7.164;2022-08-19T06:29:31;29.97;;;21.00;;
9346;SDS011;4712;50.698;7.164;2022-08-19T06:31:58;22.67;;;19.63;;
9346;SDS011;4712;50.698;7.164;2022-08-19T06:34:24;27.88;;;19.08;;
9346;SDS011;4712;50.698;7.164;2022-08-19T06:36:50;21.52;;;17.17;;
9346;SDS011;4712;50.698;7.164;2022-08-19T06:39:37;23.75;;;21.33;;
9346;SDS011;4712;50.698;7.164;2022-08-19T06:42:04;23.40;;;20.73;;
9346;SDS011;4712;50.698;7.164;2022-08-19T06:44:33;25.73;;;20.08;;
9346;SDS011;4712;50.698;7.164;2022-08-19T06:47:00;24.70;;;18.58;;
9346;SDS011;4712;50.698;7.164;2022-08-19T06:49:27;21.52;;;19.23;;
9346;SDS011;4712;50.698;7.164;2022-08-19T06:51:56;25.27;;;20.88;;
9346;SDS011;4712;50.698;7.164;2022-08-19T06:54:22;25.73;;;20.85;;
9346;SDS011;4712;50.698;7.164;2022-08-19T06:56:48;23.38;;;20.27;;
9346;SDS011;4712;50.698;7.164;2022-08-19T06:59:14;25.37;;;20.57;;
9346;SDS011;4712;50.698;7.164;2022-08-19T07:01:41;22.52;;;20.00;;
9346;SDS011;4712;50.698;7.164;2022-08-19T07:04:07;24.15;;;19.55;;
9346;SDS011;4712;50.698;7.164;2022-08-19T07:06:33;20.02;;;17.58;;
9346;SDS011;4712;50.698;7.164;2022-08-19T07:08:59;26.65;;;21.38;;
9346;SDS011;4712;50.698;7.164;2022-08-19T07:11:24;27.67;;;20.80;;
9346;SDS011;4712;50.698;7.164;2022-08-19T07:13:49;28.92;;;20.95;;
9346;SDS011;4712;50.698;7.164;2022-08-19T07:16:17;24.35;;;20.15;;
9346;SDS011;4712;50.698;7.164;2022-08-19T07:18:44;22.88;;;19.10;;
9346;SDS011;4712;50.698;7.164;2022-08-19T07:21:10;28.65;;;19.63;;
9346;SDS011;4712;50.698;7.164;2022-08-19T07:23:36;26.70;;;18.88;;
9346;SDS011;4712;50.698;7.164;2022-08-19T07:26:06;24.60;;;19.53;;
9346;SDS011;4712;50.698;7.164;2022-08-19T07:28:31;32.85;;;19.77;;
9346;SDS011;4712;50.698;7.164;2022-08-19T07:30:56;22.50;;;18.43;;
9346;SDS011;4712;50.698;7.164;2022-08-19T07:33:22;21.00;;;18.03;;
9346;SDS011;4712;50.698;7.164;2022-08-19T07:35:47;23.70;;;18.10;;
9346;SDS011;4712;50.698;7.164;2022-08-19T07:38:12;23.95;;;19.92;;
9346;SDS011;4712;50.698;7.164;2022-08-19T07:40:38;24.70;;;18.52;;
9346;SDS011;4712;50.698;7.164;2022-08-19T07:43:04;25.30;;;18.70;;
9346;SDS011;4712;50.698;7.164;2022-08-19T07:45:30;24.17;;;19.20;;
9346;SDS011;4712;50.698;7.164;2022-08-19T07:47:56;27.67;;;19.88;;
9346;SDS011;4712;50.698;7.164;2022-08-19T07:50:22;26.35;;;19.70;;
9346;SDS011;4712;50.698;7.164;2022-08-19T07:52:48;23.80;;;17.50;;
9346;SDS011;4712;50.698;7.164;2022-08-19T07:55:14;23.90;;;18.48;;
9346;SDS011;4712;50.698;7.164;2022-08-19T07:57:40;25.60;;;18.90;;
9346;SDS011;4712;50.698;7.164;2022-08-19T08:00:05;23.00;;;16.80;;
9346;SDS011;4712;50.698;7.164;2022-08-19T08:02:31;24.92;;;18.38;;
9346;SDS011;4712;50.698;7.164;2022-08-19T08:04:56;32.37;;;17.77;;
9346;SDS011;4712;50.698;7.164;2022-08-19T08:07:40;28.63;;;16.48;;
9346;SDS011;4712;50.698;7.164;2022-08-19T08:10:24;21.20;;;18.52;;
9346;SDS011;4712;50.698;7.164;2022-08-19T08:12:50;21.42;;;17.45;;
9346;SDS011;4712;50.698;7.164;2022-08-19T08:15:16;18.23;;;14.73;;
9346;SDS011;4712;50.698;7.164;2022-08-19T08:17:41;20.60;;;15.98;;
9346;SDS011;4712;50.698;7.164;2022-08-19T08:20:07;19.35;;;13.80;;
9346;SDS011;4712;50.698;7.164;2022-08-19T08:22:32;19.58;;;14.73;;
9346;SDS011;4712;50.698;7.164;2022-08-19T08:25:17;20.08;;;15.07;;
9346;SDS011;4712;50.698;7.164;2022-08-19T08:27:44;22.42;;;15.32;;
9346;SDS011;4712;50.698;7.164;2022-08-19T08:30:14;15.90;;;13.95;;
9346;SDS011;4712;50.698;7.164;2022-08-19T08:32:40;21.00;;;16.02;;
9346;SDS011;4712;50.698;7.164;2022-08-19T08:35:07;17.23;;;15.38;;
9346;SDS011;4712;50.698;7.164;2022-08-19T08:37:32;26.00;;;15.35;;
9346;SDS011;4712;50.698;7.164;2022-08-19T08:39:58;18.25;;;12.05;;
9346;SDS011;4712;50.698;7.164;2022-08-19T08:42:24;17.25;;;11.50;;
9346;SDS011;4712;50.698;7.164;2022-08-19T08:44:58;15.07;;;10.68;;
9346;SDS011;4712;50.698;7.164;2022-08-19T08:47:23;16.45;;;11.23;;
9346;SDS011;4712;50.698;7.164;2022-08-19T08:49:51;18.88;;;11.40;;
9346;SDS011;4712;50.698;7.164;2022-08-19T08:52:39;17.70;;;10.98;;
9346;SDS011;4712;50.698;7.164;2022-08-19T08:55:10;13.30;;;9.40;;
9346;SDS011;4712;50.698;7.164;2022-08-19T09:00:02;15.10;;;10.77;;
9346;SDS011;4712;50.698;7.164;2022-08-19T09:02:30;16.50;;;9.73;;
9346;SDS011;4712;50.698;7.164;2022-08-19T09:04:55;12.77;;;9.63;;
9346;SDS011;4712;50.698;7.164;2022-08-19T09:12:46;13.90;;;10.30;;
9346;SDS011;4712;50.698;7.164;2022-08-19T09:15:14;13.55;;;9.73;;
9346;SDS011;4712;50.698;7.164;2022-08-19T09:17:43;12.98;;;10.35;;
9346;SDS011;4712;50.698;7.164;2022-08-19T09:22:36;19.83;;;10.05;;
9346;SDS011;4712;50.698;7.164;2022-08-19T09:25:01;11.48;;;10.27;;
9346;SDS011;4712;50.698;7.164;2022-08-19T09:27:27;17.85;;;10.55;;
9346;SDS011;4712;50.698;7.164;2022-08-19T09:29:53;20.92;;;13.52;;
9346;SDS011;4712;50.698;7.164;2022-08-19T09:32:18;19.45;;;13.68;;
9346;SDS011;4712;50.698;7.164;2022-08-19T09:34:44;17.35;;;13.52;;
9346;SDS011;4712;50.698;7.164;2022-08-19T09:37:10;18.42;;;14.40;;
9346;SDS011;4712;50.698;7.164;2022-08-19T09:39:37;21.98;;;14.15;;
9346;SDS011;4712;50.698;7.164;2022-08-19T09:42:02;21.48;;;15.48;;
9346;SDS011;4712;50.698;7.164;2022-08-19T09:44:28;18.90;;;14.27;;
9346;SDS011;4712;50.698;7.164;2022-08-19T09:46:53;19.60;;;14.05;;
9346;SDS011;4712;50.698;7.164;2022-08-19T09:49:19;20.23;;;13.73;;
9346;SDS011;4712;50.698;7.164;2022-08-19T09:51:49;19.38;;;16.10;;
9346;SDS011;4712;50.698;7.164;2022-08-19T09:54:14;21.20;;;17.77;;
9346;SDS011;4712;50.698;7.164;2022-08-19T09:56:39;22.80;;;17.07;;
9346;SDS011;4712;50.698;7.164;2022-08-19T09:59:04;22.17;;;17.63;;
9346;SDS011;4712;50.698;7.164;2022-08-19T10:01:30;25.87;;;17.53;;
9346;SDS011;4712;50.698;7.164;2022-08-19T10:03:57;22.35;;;17.40;;
9346;SDS011;4712;50.698;7.164;2022-08-19T10:06:23;23.05;;;16.45;;
9346;SDS011;4712;50.698;7.164;2022-08-19T10:08:48;20.20;;;14.68;;
9346;SDS011;4712;50.698;7.164;2022-08-19T10:11:14;17.75;;;13.98;;
9346;SDS011;4712;50.698;7.164;2022-08-19T10:13:41;26.83;;;15.57;;
9346;SDS011;4712;50.698;7.164;2022-08-19T10:16:08;16.92;;;14.75;;
9346;SDS011;4712;50.698;7.164;2022-08-19T10:18:34;17.85;;;15.93;;
9346;SDS011;4712;50.698;7.164;2022-08-19T10:21:07;19.55;;;12.90;;
9346;SDS011;4712;50.698;7.164;2022-08-19T10:23:33;19.20;;;17.10;;
9346;SDS011;4712;50.698;7.164;2022-08-19T10:25:59;20.83;;;16.33;;
9346;SDS011;4712;50.698;7.164;2022-08-19T10:28:25;29.65;;;18.00;;
9346;SDS011;4712;50.698;7.164;2022-08-19T10:30:50;18.23;;;14.18;;
9346;SDS011;4712;50.698;7.164;2022-08-19T10:33:15;20.33;;;15.63;;
9346;SDS011;4712;50.698;7.164;2022-08-19T10:35:40;23.43;;;18.20;;
9346;SDS011;4712;50.698;7.164;2022-08-19T10:38:05;22.35;;;15.40;;
9346;SDS011;4712;50.698;7.164;2022-08-19T10:40:31;20.63;;;16.42;;
9346;SDS011;4712;50.698;7.164;2022-08-19T10:42:56;23.57;;;17.50;;
9346;SDS011;4712;50.698;7.164;2022-08-19T10:45:21;23.48;;;16.02;;
9346;SDS011;4712;50.698;7.164;2022-08-19T10:47:48;23.90;;;17.20;;
9346;SDS011;4712;50.698;7.164;2022-08-19T10:50:13;28.42;;;16.98;;
9346;SDS011;4712;50.698;7.164;2022-08-19T10:52:57;26.13;;;18.65;;
9346;SDS011;4712;50.698;7.164;2022-08-19T10:55:27;21.75;;;15.52;;
9346;SDS011;4712;50.698;7.164;2022-08-19T10:58:12;19.63;;;14.85;;
9346;SDS011;4712;50.698;7.164;2022-08-19T11:00:38;17.67;;;12.18;;
9346;SDS011;4712;50.698;7.164;2022-08-19T11:03:03;21.20;;;15.30;;
9346;SDS011;4712;50.698;7.164;2022-08-19T11:05:28;16.47;;;12.73;;
9346;SDS011;4712;50.698;7.164;2022-08-19T11:07:53;24.37;;;18.20;;
9346;SDS011;4712;50.698;7.164;2022-08-19T11:10:18;19.15;;;15.65;;
9346;SDS011;4712;50.698;7.164;2022-08-19T11:12:44;22.43;;;17.10;;
9346;SDS011;4712;50.698;7.164;2022-08-19T11:15:11;20.52;;;15.27;;
9346;SDS011;4712;50.698;7.164;2022-08-19T11:17:37;18.87;;;12.77;;
9346;SDS011;4712;50.698;7.164;2022-08-19T11:20:05;19.25;;;13.02;;
9346;SDS011;4712;50.698;7.164;2022-08-19T11:22:32;14.40;;;11.65;;
9346;SDS011;4712;50.698;7.164;2022-08-19T11:24:57;17.10;;;11.43;;
9346;SDS011;4712;50.698;7.164;2022-08-19T11:27:22;12.83;;;10.00;;
9346;SDS011;4712;50.698;7.164;2022-08-19T11:29:47;10.93;;;9.23;;
9346;SDS011;4712;50.698;7.164;2022-08-19T11:32:13;14.35;;;8.35;;
9346;SDS011;4712;50.698;7.164;2022-08-19T11:34:38;9.30;;;7.40;;
9346;SDS011;4712;50.698;7.164;2022-08-19T11:37:04;14.32;;;9.45;;
9346;SDS011;4712;50.698;7.164;2022-08-19T11:39:31;8.52;;;7.75;;
9346;SDS011;4712;50.698;7.164;2022-08-19T11:41:57;9.30;;;6.50;;
9346;SDS011;4712;50.698;7.164;2022-08-19T11:44:23;7.00;;;5.82;;
9346;SDS011;4712;50.698;7.164;2022-08-19T11:46:48;8.65;;;6.78;;
9346;SDS011;4712;50.698;7.164;2022-08-19T11:49:14;9.40;;;5.63;;
9346;SDS011;4712;50.698;7.164;2022-08-19T11:51:40;11.80;;;6.05;;
9346;SDS011;4712;50.698;7.164;2022-08-19T11:54:07;8.15;;;5.60;;
9346;SDS011;4712;50.698;7.164;2022-08-19T11:56:33;9.55;;;6.13;;
9346;SDS011;4712;50.698;7.164;2022-08-19T11:58:58;8.07;;;5.57;;
9346;SDS011;4712;50.698;7.164;2022-08-19T12:01:25;15.55;;;6.25;;
9346;SDS011;4712;50.698;7.164;2022-08-19T12:03:51;11.38;;;5.95;;
9346;SDS011;4712;50.698;7.164;2022-08-19T12:06:17;5.28;;;4.63;;
9346;SDS011;4712;50.698;7.164;2022-08-19T12:08:43;11.85;;;6.00;;
9346;SDS011;4712;50.698;7.164;2022-08-19T12:11:09;9.15;;;6.10;;
9346;SDS011;4712;50.698;7.164;2022-08-19T12:13:35;8.80;;;6.97;;
9346;SDS011;4712;50.698;7.164;2022-08-19T12:16:00;8.52;;;6.45;;
9346;SDS011;4712;50.698;7.164;2022-08-19T12:18:26;8.97;;;6.07;;
9346;SDS011;4712;50.698;7.164;2022-08-19T12:20:52;8.63;;;5.27;;
9346;SDS011;4712;50.698;7.164;2022-08-19T12:23:17;10.32;;;5.05;;
9346;SDS011;4712;50.698;7.164;2022-08-19T12:25:44;9.73;;;4.83;;
9346;SDS011;4712;50.698;7.164;2022-08-19T12:28:16;6.82;;;5.65;;
9346;SDS011;4712;50.698;7.164;2022-08-19T12:30:42;6.93;;;5.60;;
9346;SDS011;4712;50.698;7.164;2022-08-19T12:33:07;9.00;;;6.05;;
9346;SDS011;4712;50.698;7.164;2022-08-19T12:35:33;8.63;;;5.83;;
9346;SDS011;4712;50.698;7.164;2022-08-19T12:37:58;10.20;;;6.13;;
9346;SDS011;4712;50.698;7.164;2022-08-19T12:40:24;10.63;;;6.63;;
9346;SDS011;4712;50.698;7.164;2022-08-19T12:42:49;9.43;;;6.43;;
9346;SDS011;4712;50.698;7.164;2022-08-19T12:45:16;8.60;;;6.20;;
9346;SDS011;4712;50.698;7.164;2022-08-19T12:47:41;13.25;;;6.63;;
9346;SDS011;4712;50.698;7.164;2022-08-19T12:50:06;9.18;;;5.97;;
9346;SDS011;4712;50.698;7.164;2022-08-19T12:52:33;7.45;;;6.57;;
9346;SDS011;4712;50.698;7.164;2022-08-19T12:55:02;9.77;;;5.93;;
9346;SDS011;4712;50.698;7.164;2022-08-19T12:57:28;12.25;;;6.65;;
9346;SDS011;4712;50.698;7.164;2022-08-19T12:59:54;10.10;;;6.88;;
9346;SDS011;4712;50.698;7.164;2022-08-19T13:02:19;10.43;;;5.72;;
9346;SDS011;4712;50.698;7.164;2022-08-19T13:04:44;8.55;;;7.13;;
9346;SDS011;4712;50.698;7.164;2022-08-19T13:07:10;8.93;;;7.50;;
9346;SDS011;4712;50.698;7.164;2022-08-19T13:09:35;14.02;;;8.32;;
9346;SDS011;4712;50.698;7.164;2022-08-19T13:12:01;11.85;;;7.82;;
9346;SDS011;4712;50.698;7.164;2022-08-19T13:14:28;10.35;;;9.35;;
9346;SDS011;4712;50.698;7.164;2022-08-19T13:16:56;9.48;;;8.48;;
9346;SDS011;4712;50.698;7.164;2022-08-19T13:19:22;9.68;;;8.68;;
9346;SDS011;4712;50.698;7.164;2022-08-19T13:21:51;11.40;;;8.10;;
9346;SDS011;4712;50.698;7.164;2022-08-19T13:24:17;12.07;;;8.93;;
9346;SDS011;4712;50.698;7.164;2022-08-19T13:26:43;15.82;;;8.13;;
9346;SDS011;4712;50.698;7.164;2022-08-19T13:29:08;8.77;;;7.25;;
9346;SDS011;4712;50.698;7.164;2022-08-19T13:31:52;7.63;;;6.93;;
9346;SDS011;4712;50.698;7.164;2022-08-19T13:34:36;7.95;;;6.18;;
9346;SDS011;4712;50.698;7.164;2022-08-19T13:37:02;7.53;;;6.40;;
9346;SDS011;4712;50.698;7.164;2022-08-19T13:39:28;10.15;;;6.30;;
9346;SDS011;4712;50.698;7.164;2022-08-19T13:41:53;9.57;;;5.30;;
9346;SDS011;4712;50.698;7.164;2022-08-19T13:44:19;11.23;;;5.33;;
9346;SDS011;4712;50.698;7.164;2022-08-19T13:46:44;8.00;;;6.65;;
9346;SDS011;4712;50.698;7.164;2022-08-19T13:49:13;7.80;;;6.03;;
9346;SDS011;4712;50.698;7.164;2022-08-19T13:51:39;9.43;;;7.03;;
9346;SDS011;4712;50.698;7.164;2022-08-19T13:54:05;8.57;;;6.70;;
9346;SDS011;4712;50.698;7.164;2022-08-19T13:56:30;13.50;;;6.97;;
9346;SDS011;4712;50.698;7.164;2022-08-19T13:58:55;11.15;;;6.03;;
9346;SDS011;4712;50.698;7.164;2022-08-19T14:01:22;15.88;;;7.70;;
9346;SDS011;4712;50.698;7.164;2022-08-19T14:03:47;9.20;;;7.10;;
9346;SDS011;4712;50.698;7.164;2022-08-19T14:06:12;14.85;;;7.93;;
9346;SDS011;4712;50.698;7.164;2022-08-19T14:08:37;8.43;;;7.00;;
9346;SDS011;4712;50.698;7.164;2022-08-19T14:11:04;11.60;;;7.30;;
9346;SDS011;4712;50.698;7.164;2022-08-19T14:13:29;12.55;;;6.65;;
9346;SDS011;4712;50.698;7.164;2022-08-19T14:15:55;25.98;;;7.43;;
9346;SDS011;4712;50.698;7.164;2022-08-19T14:18:21;8.63;;;7.38;;
9346;SDS011;4712;50.698;7.164;2022-08-19T14:20:46;7.38;;;6.63;;
9346;SDS011;4712;50.698;7.164;2022-08-19T14:23:11;7.77;;;5.67;;
9346;SDS011;4712;50.698;7.164;2022-08-19T14:25:37;10.50;;;6.30;;
9346;SDS011;4712;50.698;7.164;2022-08-19T14:28:02;6.37;;;5.33;;
9346;SDS011;4712;50.698;7.164;2022-08-19T14:30:30;8.13;;;5.90;;
9346;SDS011;4712;50.698;7.164;2022-08-19T14:32:55;8.23;;;5.18;;
9346;SDS011;4712;50.698;7.164;2022-08-19T14:35:21;9.07;;;5.75;;
9346;SDS011;4712;50.698;7.164;2022-08-19T14:37:47;10.32;;;5.75;;
9346;SDS011;4712;50.698;7.164;2022-08-19T14:40:13;6.43;;;5.60;;
9346;SDS011;4712;50.698;7.164;2022-08-19T14:42:39;8.05;;;6.40;;
9346;SDS011;4712;50.698;7.164;2022-08-19T14:45:04;10.88;;;5.97;;
9346;SDS011;4712;50.698;7.164;2022-08-19T14:47:30;9.48;;;6.20;;
9346;SDS011;4712;50.698;7.164;2022-08-19T14:49:55;11.83;;;7.67;;
9346;SDS011;4712;50.698;7.164;2022-08-19T14:52:20;11.50;;;7.30;;
9346;SDS011;4712;50.698;7.164;2022-08-19T14:54:46;7.97;;;6.20;;
9346;SDS011;4712;50.698;7.164;2022-08-19T14:57:11;7.93;;;6.47;;
9346;SDS011;4712;50.698;7.164;2022-08-19T14:59:37;12.23;;;7.13;;
9346;SDS011;4712;50.698;7.164;2022-08-19T15:02:02;9.50;;;6.43;;
9346;SDS011;4712;50.698;7.164;2022-08-19T15:04:27;6.40;;;5.80;;
9346;SDS011;4712;50.698;7.164;2022-08-19T15:06:53;8.33;;;6.13;;
9346;SDS011;4712;50.698;7.164;2022-08-19T15:09:18;8.27;;;6.10;;
9346;SDS011;4712;50.698;7.164;2022-08-19T15:11:43;9.23;;;6.23;;